createdAt,value
2022-09-30T00:01:54.530Z,98.21
2022-09-30T00:04:25.422Z,97.76
2022-09-30T00:06:54.551Z,97.45
2022-09-30T00:09:22.621Z,97.07
2022-09-30T00:11:50.922Z,96.62
2022-09-30T00:14:21.794Z,95.74
2022-09-30T00:16:50.247Z,95.18
2022-09-30T00:19:17.679Z,95.32
2022-09-30T00:21:45.496Z,96.35
2022-09-30T00:24:13.714Z,96.75
2022-09-30T00:26:41.174Z,96.85
2022-09-30T00:29:09.852Z,96.20
2022-09-30T00:31:37.749Z,97.06
2022-09-30T00:34:08.806Z,97.11
2022-09-30T00:36:46.825Z,96.31
2022-09-30T00:39:28.134Z,96.52
2022-09-30T00:42:06.609Z,96.42
2022-09-30T00:44:57.113Z,96.53
2022-09-30T00:47:53.908Z,96.35
2022-09-30T00:50:36.422Z,95.59
2022-09-30T00:53:25.179Z,95.32
2022-09-30T00:55:56.105Z,95.17
2022-09-30T00:58:39.281Z,94.80
2022-09-30T01:01:07.411Z,95.27
2022-09-30T01:03:46.840Z,95.07
2022-09-30T01:06:14.352Z,94.55
2022-09-30T01:08:42.389Z,94.59
2022-09-30T01:11:09.722Z,94.57
2022-09-30T01:13:39.527Z,94.65
2022-09-30T01:16:22.261Z,94.11
2022-09-30T01:19:07.562Z,94.60
2022-09-30T01:22:24.472Z,95.55
2022-09-30T01:25:16.861Z,95.96
2022-09-30T01:28:03.310Z,96.41
2022-09-30T01:30:57.184Z,97.04
2022-09-30T01:33:46.733Z,96.49
2022-09-30T01:36:28.390Z,97.10
2022-09-30T01:39:28.119Z,96.84
2022-09-30T01:42:15.338Z,97.23
2022-09-30T01:45:29.473Z,96.80
2022-09-30T01:48:22.117Z,96.98
2022-09-30T01:50:59.356Z,97.04
2022-09-30T01:53:46.198Z,96.29
2022-09-30T01:56:17.830Z,96.33
2022-09-30T01:58:57.728Z,96.53
2022-09-30T02:01:39.885Z,96.91
2022-09-30T02:04:25.262Z,97.43
2022-09-30T02:07:05.602Z,97.68
2022-09-30T02:09:49.437Z,97.78
2022-09-30T02:12:24.224Z,98.41
2022-09-30T02:15:12.876Z,98.77
2022-09-30T02:17:52.069Z,99.24
2022-09-30T02:20:27.975Z,99.13
2022-09-30T02:23:11.539Z,98.79
2022-09-30T02:25:47.387Z,98.40
2022-09-30T02:28:29.258Z,98.75
2022-09-30T02:31:02.144Z,99.16
2022-09-30T02:34:00.958Z,98.87
2022-09-30T02:36:30.273Z,98.75
2022-09-30T02:39:06.575Z,98.43
2022-09-30T02:41:46.003Z,98.66
2022-09-30T02:44:15.003Z,98.54
2022-09-30T02:46:57.311Z,98.51
2022-09-30T02:50:07.452Z,98.87
2022-09-30T02:53:02.260Z,98.95
2022-09-30T02:55:42.686Z,99.54
2022-09-30T02:58:22.637Z,99.60
2022-09-30T03:00:51.182Z,99.68
2022-09-30T03:03:27.773Z,99.81
2022-09-30T03:05:55.381Z,99.56
2022-09-30T03:08:22.794Z,99.72
2022-09-30T03:10:52.446Z,99.46
2022-09-30T03:13:28.356Z,99.25
2022-09-30T03:16:35.015Z,99.23
2022-09-30T03:19:02.214Z,98.75
2022-09-30T03:21:53.798Z,98.46
2022-09-30T03:24:59.939Z,98.28
2022-09-30T03:27:52.827Z,97.60
2022-09-30T03:30:28.493Z,97.26
2022-09-30T03:33:16.230Z,97.61
2022-09-30T03:35:57.625Z,97.28
2022-09-30T03:39:23.957Z,97.82
2022-09-30T03:42:06.285Z,97.79
2022-09-30T03:44:49.878Z,97.83
2022-09-30T03:47:22.235Z,98.20
2022-09-30T03:50:00.159Z,98.88
2022-09-30T03:52:32.271Z,99.15
2022-09-30T03:55:05.009Z,99.09
2022-09-30T03:57:32.355Z,99.45
2022-09-30T04:00:00.581Z,99.51
2022-09-30T04:02:28.666Z,99.93
2022-09-30T04:04:56.565Z,100.00
2022-09-30T04:07:23.871Z,100.00
2022-09-30T04:09:51.415Z,100.00
2022-09-30T04:12:18.809Z,100.00
2022-09-30T04:14:46.055Z,100.00
2022-09-30T04:17:13.791Z,100.00
2022-09-30T04:19:41.224Z,100.00
2022-09-30T04:22:09.221Z,100.00
2022-09-30T04:24:37.116Z,100.00
2022-09-30T04:27:04.524Z,100.00
2022-09-30T04:29:31.878Z,100.00
2022-09-30T04:31:59.354Z,100.00
2022-09-30T04:34:26.498Z,100.00
2022-09-30T04:36:53.921Z,100.00
2022-09-30T04:39:21.421Z,100.00
2022-09-30T04:41:48.852Z,100.00
2022-09-30T04:44:16.027Z,100.00
2022-09-30T04:46:44.059Z,100.00
2022-09-30T04:49:11.310Z,100.00
2022-09-30T04:51:38.643Z,100.00
2022-09-30T04:54:06.258Z,100.00
2022-09-30T04:56:33.583Z,100.00
2022-09-30T04:59:00.793Z,100.00
2022-09-30T05:01:28.316Z,100.00
2022-09-30T05:03:55.478Z,100.00
2022-09-30T05:06:22.719Z,100.00
2022-09-30T05:08:50.144Z,100.00
2022-09-30T05:11:20.979Z,100.00
2022-09-30T05:13:49.366Z,100.00
2022-09-30T05:16:17.944Z,100.00
2022-09-30T05:18:46.442Z,100.00
2022-09-30T05:21:18.372Z,100.00
2022-09-30T05:23:45.865Z,100.00
2022-09-30T05:26:13.295Z,100.00
2022-09-30T05:28:44.450Z,100.00
2022-09-30T05:31:13.562Z,100.00
2022-09-30T05:33:42.101Z,100.00
2022-09-30T05:36:15.519Z,100.00
2022-09-30T05:38:43.170Z,100.00
2022-09-30T05:41:13.374Z,100.00
2022-09-30T05:43:45.341Z,100.00
2022-09-30T05:46:17.336Z,100.00
2022-09-30T05:48:45.762Z,100.00
2022-09-30T05:51:13.254Z,100.00
2022-09-30T05:53:41.325Z,100.00
2022-09-30T05:56:10.491Z,100.00
2022-09-30T05:58:40.772Z,100.00
2022-09-30T06:01:14.447Z,100.00
2022-09-30T06:03:44.105Z,100.00
2022-09-30T06:06:13.044Z,100.00
2022-09-30T06:08:40.579Z,100.00
2022-09-30T06:11:17.840Z,100.00
2022-09-30T06:13:50.262Z,100.00
2022-09-30T06:16:19.241Z,100.00
2022-09-30T06:18:47.285Z,100.00
2022-09-30T06:21:17.610Z,100.00
2022-09-30T06:23:45.315Z,100.00
2022-09-30T06:26:14.549Z,100.00
2022-09-30T06:28:42.940Z,100.00
2022-09-30T06:31:11.438Z,100.00
2022-09-30T06:33:39.043Z,100.00
2022-09-30T06:36:06.943Z,100.00
2022-09-30T06:38:40.196Z,100.00
2022-09-30T06:41:08.813Z,100.00
2022-09-30T06:43:39.018Z,100.00
2022-09-30T06:46:19.909Z,100.00
2022-09-30T06:48:57.686Z,100.00
2022-09-30T06:51:33.120Z,100.00
2022-09-30T06:54:00.896Z,100.00
2022-09-30T06:56:35.005Z,100.00
2022-09-30T06:59:02.204Z,100.00
2022-09-30T07:01:30.047Z,100.00
2022-09-30T07:03:58.240Z,100.00
2022-09-30T07:06:26.519Z,99.65
2022-09-30T07:08:54.733Z,99.55
2022-09-30T07:11:21.936Z,99.25
2022-09-30T07:13:49.459Z,98.74
2022-09-30T07:16:20.046Z,97.86
2022-09-30T07:18:47.633Z,97.93
2022-09-30T07:21:16.645Z,97.57
2022-09-30T07:23:48.793Z,97.46
2022-09-30T07:26:20.305Z,96.69
2022-09-30T07:28:49.624Z,96.64
2022-09-30T07:31:40.022Z,96.14
2022-09-30T07:34:09.601Z,95.61
2022-09-30T07:36:40.552Z,95.65
2022-09-30T07:39:10.187Z,95.19
2022-09-30T07:41:45.239Z,94.23
2022-09-30T07:44:15.205Z,94.50
2022-09-30T07:46:44.745Z,94.16
2022-09-30T07:49:25.664Z,93.35
2022-09-30T07:51:57.481Z,93.40
2022-09-30T07:54:30.381Z,92.78
2022-09-30T07:57:15.678Z,92.75
2022-09-30T07:59:42.965Z,92.74
2022-09-30T08:02:18.371Z,92.47
2022-09-30T08:04:47.179Z,92.09
2022-09-30T08:07:17.762Z,92.10
2022-09-30T08:09:45.320Z,91.82
2022-09-30T08:12:12.837Z,91.70
2022-09-30T08:14:40.592Z,91.54
2022-09-30T08:17:08.116Z,91.48
2022-09-30T08:19:35.814Z,91.79
2022-09-30T08:24:35.734Z,91.55
2022-09-30T08:27:03.265Z,91.77
2022-09-30T08:32:18.516Z,92.19
2022-09-30T08:34:46.192Z,92.09
2022-09-30T08:37:13.491Z,92.46
2022-09-30T08:39:40.711Z,92.41
2022-09-30T08:42:51.463Z,92.47
2022-09-30T08:45:58.162Z,92.12
2022-09-30T08:49:21.580Z,92.25
2022-09-30T08:51:52.045Z,92.34
2022-09-30T08:54:26.564Z,91.93
2022-09-30T08:56:57.687Z,92.24
2022-09-30T08:59:26.968Z,91.87
2022-09-30T09:02:05.207Z,92.15
2022-09-30T09:04:33.615Z,92.26
2022-09-30T09:07:22.708Z,92.04
2022-09-30T09:10:18.819Z,92.08
2022-09-30T09:12:59.729Z,91.75
2022-09-30T09:15:50.496Z,91.90
2022-09-30T09:18:36.385Z,91.67
2022-09-30T09:21:49.603Z,91.57
2022-09-30T09:24:27.955Z,91.81
2022-09-30T09:26:59.191Z,91.69
2022-09-30T09:29:46.209Z,91.36
2022-09-30T09:32:19.529Z,91.04
2022-09-30T09:34:58.828Z,91.10
2022-09-30T09:38:14.651Z,90.68
2022-09-30T09:41:20.394Z,90.41
2022-09-30T09:44:36.193Z,90.88
2022-09-30T09:47:05.796Z,90.93
2022-09-30T09:49:41.630Z,90.94
2022-09-30T09:52:14.970Z,90.44
2022-09-30T09:54:46.833Z,90.30
2022-09-30T09:57:19.454Z,90.07
2022-09-30T10:00:31.049Z,89.22
2022-09-30T10:03:20.707Z,89.23
2022-09-30T10:06:10.667Z,89.20
2022-09-30T10:08:54.035Z,89.15
2022-09-30T10:11:25.678Z,89.13
2022-09-30T10:13:59.655Z,89.36
2022-09-30T10:16:31.898Z,89.22
2022-09-30T10:19:00.336Z,89.29
2022-09-30T10:21:30.029Z,89.34
2022-09-30T10:23:57.976Z,89.11
2022-09-30T10:26:28.645Z,89.01
2022-09-30T10:28:59.839Z,88.86
2022-09-30T10:31:31.752Z,88.22
2022-09-30T10:34:26.737Z,88.10
2022-09-30T10:36:56.247Z,87.81
2022-09-30T10:39:30.191Z,87.65
2022-09-30T10:42:25.994Z,87.54
2022-09-30T10:45:02.187Z,87.48
2022-09-30T10:47:35.673Z,87.42
2022-09-30T10:50:17.266Z,87.78
2022-09-30T10:52:59.327Z,87.48
2022-09-30T10:55:43.811Z,87.27
2022-09-30T10:58:40.954Z,87.38
2022-09-30T11:01:33.061Z,86.81
2022-09-30T11:04:12.503Z,86.75
2022-09-30T11:06:45.891Z,86.72
2022-09-30T11:09:37.941Z,86.60
2022-09-30T11:12:37.495Z,86.31
2022-09-30T11:15:42.618Z,86.72
2022-09-30T11:18:40.265Z,86.43
2022-09-30T11:21:20.688Z,86.25
2022-09-30T11:24:24.253Z,86.00
2022-09-30T11:27:21.668Z,85.38
2022-09-30T11:30:35.751Z,84.87
2022-09-30T11:33:43.706Z,84.90
2022-09-30T11:36:50.348Z,84.69
2022-09-30T11:40:24.473Z,84.71
2022-09-30T11:43:41.312Z,84.83
2022-09-30T11:46:31.287Z,84.37
2022-09-30T11:49:16.889Z,83.80
2022-09-30T11:52:05.666Z,83.87
2022-09-30T11:55:30.155Z,83.95
2022-09-30T11:58:22.737Z,83.60
2022-09-30T12:01:21.331Z,83.27
2022-09-30T12:04:08.637Z,83.09
2022-09-30T12:07:21.771Z,83.14
2022-09-30T12:10:02.912Z,83.14
2022-09-30T12:12:32.246Z,83.39
2022-09-30T12:15:07.710Z,83.44
2022-09-30T12:17:55.043Z,83.63
2022-09-30T12:20:37.368Z,83.71
2022-09-30T12:23:35.839Z,84.22
2022-09-30T12:26:05.075Z,84.00
2022-09-30T12:29:04.086Z,84.43
2022-09-30T12:32:09.189Z,85.03
2022-09-30T12:35:17.892Z,85.70
2022-09-30T12:38:10.927Z,85.67
2022-09-30T12:41:07.691Z,86.18
2022-09-30T12:44:13.087Z,86.34
2022-09-30T12:47:01.125Z,86.47
2022-09-30T12:49:32.951Z,86.58
2022-09-30T12:52:19.818Z,86.85
2022-09-30T12:54:57.735Z,87.12
2022-09-30T12:57:40.099Z,86.85
2022-09-30T13:00:18.320Z,86.72
2022-09-30T13:02:55.822Z,86.87
2022-09-30T13:05:31.993Z,86.84
2022-09-30T13:08:06.192Z,86.62
2022-09-30T13:10:38.222Z,86.47
2022-09-30T13:13:33.219Z,86.34
2022-09-30T13:16:06.862Z,86.12
2022-09-30T13:18:34.322Z,86.56
2022-09-30T13:21:10.850Z,86.16
2022-09-30T13:23:45.713Z,86.29
2022-09-30T13:26:28.069Z,86.07
2022-09-30T13:29:18.234Z,85.73
2022-09-30T13:31:51.674Z,85.91
2022-09-30T13:34:27.478Z,85.75
2022-09-30T13:37:04.598Z,85.35
2022-09-30T13:39:35.525Z,85.40
2022-09-30T13:42:21.773Z,85.60
2022-09-30T13:45:04.283Z,85.98
2022-09-30T13:47:40.625Z,85.73
2022-09-30T13:50:14.640Z,85.98
2022-09-30T13:52:45.898Z,85.73
2022-09-30T13:55:47.006Z,85.58
2022-09-30T13:58:55.676Z,85.55
2022-09-30T14:02:06.615Z,86.16
2022-09-30T14:05:19.702Z,86.07
2022-09-30T14:08:23.711Z,86.49
2022-09-30T14:11:24.205Z,86.84
2022-09-30T14:14:28.059Z,87.15
2022-09-30T14:17:30.149Z,87.41
2022-09-30T14:20:16.108Z,87.32
2022-09-30T14:22:44.191Z,87.62
2022-09-30T14:25:23.843Z,87.27
2022-09-30T14:28:42.484Z,87.03
2022-09-30T14:31:15.411Z,86.57
2022-09-30T14:33:49.625Z,86.14
2022-09-30T14:36:22.503Z,85.64
2022-09-30T14:39:02.577Z,85.84
2022-09-30T14:41:31.501Z,85.93
2022-09-30T14:44:08.362Z,85.96
2022-09-30T14:46:44.244Z,86.36
2022-09-30T14:49:28.614Z,86.26
2022-09-30T14:51:56.114Z,86.48
2022-09-30T14:54:29.453Z,86.65
2022-09-30T14:57:00.670Z,87.24
2022-09-30T14:59:38.333Z,87.38
2022-09-30T15:02:18.527Z,87.50
2022-09-30T15:04:52.326Z,87.61
2022-09-30T15:07:20.602Z,87.63
2022-09-30T15:09:50.309Z,87.76
2022-09-30T15:12:22.802Z,88.01
2022-09-30T15:14:57.121Z,88.14
2022-09-30T15:17:36.766Z,88.02
2022-09-30T15:20:32.821Z,88.42
2022-09-30T15:23:25.234Z,88.97
2022-09-30T15:25:53.974Z,89.35
2022-09-30T15:28:21.639Z,89.36
2022-09-30T15:30:52.039Z,89.89
2022-09-30T15:33:24.237Z,90.07
2022-09-30T15:35:53.374Z,90.59
2022-09-30T15:38:34.137Z,90.65
2022-09-30T15:41:12.833Z,90.81
2022-09-30T15:43:51.750Z,91.13
2022-09-30T15:46:38.648Z,91.91
2022-09-30T15:49:37.847Z,92.11
2022-09-30T15:52:37.563Z,91.83
2022-09-30T15:55:51.371Z,92.33
2022-09-30T15:58:37.984Z,92.19
2022-09-30T16:01:26.731Z,91.77
2022-09-30T16:04:01.253Z,92.05
2022-09-30T16:06:37.800Z,92.48
2022-09-30T16:09:18.676Z,92.92
2022-09-30T16:12:12.579Z,93.04
2022-09-30T16:15:01.334Z,92.86
2022-09-30T16:17:35.327Z,92.69
2022-09-30T16:20:28.757Z,92.55
2022-09-30T16:22:56.876Z,92.69
2022-09-30T16:25:33.873Z,92.98
2022-09-30T16:28:13.720Z,93.17
2022-09-30T16:30:51.121Z,93.56
2022-09-30T16:33:18.721Z,93.81
2022-09-30T16:35:49.866Z,94.16
2022-09-30T16:38:18.561Z,93.96
2022-09-30T16:40:46.038Z,94.05
2022-09-30T16:43:13.444Z,94.18
2022-09-30T16:45:42.550Z,94.03
2022-09-30T16:48:17.608Z,93.89
2022-09-30T16:51:02.277Z,94.05
2022-09-30T16:53:30.083Z,94.02
2022-09-30T16:55:57.564Z,93.79
2022-09-30T16:58:24.829Z,93.57
2022-09-30T17:00:53.019Z,93.85
2022-09-30T17:03:22.211Z,93.77
2022-09-30T17:05:53.330Z,93.87
2022-09-30T17:08:24.142Z,94.05
2022-09-30T17:10:51.574Z,94.00
2022-09-30T17:13:19.484Z,94.20
2022-09-30T17:15:52.060Z,94.04
2022-09-30T17:18:20.194Z,94.02
2022-09-30T17:20:53.038Z,93.68
2022-09-30T17:23:23.798Z,93.61
2022-09-30T17:25:52.366Z,93.73
2022-09-30T17:28:19.605Z,93.45
2022-09-30T17:30:49.181Z,93.59
2022-09-30T17:33:19.906Z,93.86
2022-09-30T17:36:03.005Z,93.92
2022-09-30T17:38:30.985Z,94.51
2022-09-30T17:41:17.370Z,94.66
2022-09-30T17:43:45.943Z,94.90
2022-09-30T17:46:18.770Z,95.19
2022-09-30T17:48:46.960Z,95.34
2022-09-30T17:51:16.559Z,95.64
2022-09-30T17:53:45.122Z,95.57
2022-09-30T17:56:19.642Z,95.82
2022-09-30T17:58:49.181Z,96.03
2022-09-30T18:01:20.638Z,96.10
2022-09-30T18:03:48.155Z,96.11
2022-09-30T18:06:15.393Z,95.79
2022-09-30T18:08:43.674Z,95.62
2022-09-30T18:11:11.582Z,95.76
2022-09-30T18:13:38.940Z,95.64
2022-09-30T18:16:07.411Z,95.78
2022-09-30T18:18:36.031Z,95.77
2022-09-30T18:21:03.351Z,95.93
2022-09-30T18:23:30.760Z,95.86
2022-09-30T18:25:58.543Z,95.91
2022-09-30T18:28:26.487Z,95.66
2022-09-30T18:30:54.044Z,95.74
2022-09-30T18:33:22.057Z,95.75
2022-09-30T18:35:49.356Z,95.91
2022-09-30T18:38:16.818Z,96.01
2022-09-30T18:40:45.819Z,96.07
2022-09-30T18:43:14.767Z,96.40
2022-09-30T18:45:46.493Z,96.34
2022-09-30T18:48:15.306Z,96.79
2022-09-30T18:50:42.853Z,96.67
2022-09-30T18:53:13.180Z,96.55
2022-09-30T18:55:43.935Z,96.63
2022-09-30T18:58:11.691Z,96.83
2022-09-30T19:00:39.073Z,96.95
2022-09-30T19:03:06.386Z,97.18
2022-09-30T19:05:33.971Z,97.14
2022-09-30T19:08:01.500Z,97.45
2022-09-30T19:10:29.383Z,97.51
2022-09-30T19:12:57.244Z,97.54
2022-09-30T19:15:24.561Z,97.92
2022-09-30T19:17:53.168Z,97.66
2022-09-30T19:20:20.598Z,97.66
2022-09-30T19:22:48.200Z,97.77
2022-09-30T19:25:15.946Z,97.72
2022-09-30T19:27:44.653Z,98.43
2022-09-30T19:30:14.569Z,98.56
2022-09-30T19:32:41.936Z,98.71
2022-09-30T19:35:17.208Z,98.36
2022-09-30T19:37:58.342Z,98.75
2022-09-30T19:40:29.432Z,98.91
2022-09-30T19:42:57.551Z,98.97
2022-09-30T19:45:26.423Z,98.61
2022-09-30T19:47:54.257Z,98.99
2022-09-30T19:50:21.630Z,99.00
2022-09-30T19:52:56.965Z,98.71
2022-09-30T19:55:26.624Z,99.40
2022-09-30T19:57:54.353Z,99.71
2022-09-30T20:00:21.749Z,100.00
2022-09-30T20:02:50.688Z,100.00
2022-09-30T20:05:18.528Z,100.00
2022-09-30T20:07:45.773Z,100.00
2022-09-30T20:10:14.336Z,100.00
2022-09-30T20:12:42.781Z,100.00
2022-09-30T20:15:29.164Z,100.00
2022-09-30T20:17:56.648Z,100.00
2022-09-30T20:20:36.501Z,100.00
2022-09-30T20:23:04.105Z,100.00
2022-09-30T20:25:32.203Z,100.00
2022-09-30T20:27:59.634Z,100.00
2022-09-30T20:30:30.032Z,100.00
2022-09-30T20:32:57.320Z,100.00
2022-09-30T20:35:26.238Z,100.00
2022-09-30T20:37:54.402Z,100.00
2022-09-30T20:40:21.994Z,100.00
2022-09-30T20:42:49.271Z,100.00
2022-09-30T20:45:18.131Z,100.00
2022-09-30T20:47:47.183Z,100.00
2022-09-30T20:50:14.516Z,100.00
2022-09-30T20:52:42.050Z,100.00
2022-09-30T20:55:09.643Z,100.00
2022-09-30T20:57:36.946Z,100.00
2022-09-30T21:00:04.924Z,100.00
2022-09-30T21:02:34.005Z,100.00
2022-09-30T21:05:03.368Z,100.00
2022-09-30T21:07:31.063Z,100.00
2022-09-30T21:09:59.310Z,100.00
2022-09-30T21:12:27.225Z,100.00
2022-09-30T21:14:55.300Z,100.00
2022-09-30T21:17:22.618Z,100.00
2022-09-30T21:19:49.854Z,100.00
2022-09-30T21:22:17.416Z,100.00
2022-09-30T21:24:44.628Z,100.00
2022-09-30T21:27:12.040Z,100.00
2022-09-30T21:29:39.894Z,100.00
2022-09-30T21:32:07.129Z,100.00
2022-09-30T21:34:35.554Z,100.00
2022-09-30T21:37:03.157Z,100.00
2022-09-30T21:39:30.413Z,100.00
2022-09-30T21:41:58.360Z,100.00
2022-09-30T21:44:25.835Z,100.00
2022-09-30T21:46:53.275Z,100.00
2022-09-30T21:49:26.253Z,100.00
2022-09-30T21:51:53.736Z,100.00
2022-09-30T21:54:21.074Z,100.00
2022-09-30T21:56:48.722Z,100.00
2022-09-30T21:59:16.707Z,100.00
2022-09-30T22:01:43.954Z,100.00
2022-09-30T22:04:11.920Z,100.00
2022-09-30T22:06:39.598Z,100.00
2022-09-30T22:09:07.083Z,100.00
2022-09-30T22:11:34.598Z,100.00
2022-09-30T22:14:02.300Z,100.00
2022-09-30T22:16:37.178Z,100.00
2022-09-30T22:19:07.420Z,100.00
2022-09-30T22:21:37.778Z,100.00
2022-09-30T22:24:09.294Z,100.00
2022-09-30T22:26:37.301Z,100.00
2022-09-30T22:29:10.997Z,100.00
2022-09-30T22:31:39.596Z,100.00
2022-09-30T22:34:31.387Z,100.00
2022-09-30T22:37:18.146Z,100.00
2022-09-30T22:39:45.344Z,100.00
2022-09-30T22:42:12.773Z,100.00
2022-09-30T22:44:39.988Z,100.00
2022-09-30T22:47:10.688Z,100.00
2022-09-30T22:49:38.428Z,100.00
2022-09-30T22:52:06.719Z,100.00
2022-09-30T22:54:36.735Z,100.00
2022-09-30T22:57:07.916Z,100.00
2022-09-30T22:59:36.604Z,100.00
2022-09-30T23:02:05.386Z,100.00
2022-09-30T23:04:36.259Z,100.00
2022-09-30T23:07:04.522Z,100.00
2022-09-30T23:09:31.733Z,100.00
2022-09-30T23:11:59.255Z,100.00
2022-09-30T23:14:26.445Z,100.00
2022-09-30T23:16:54.628Z,100.00
2022-09-30T23:19:23.405Z,100.00
2022-09-30T23:21:50.606Z,100.00
2022-09-30T23:24:17.806Z,100.00
2022-09-30T23:26:45.194Z,100.00
2022-09-30T23:29:14.568Z,100.00
2022-09-30T23:31:42.426Z,100.00
2022-09-30T23:34:10.034Z,100.00
2022-09-30T23:36:37.998Z,100.00
2022-09-30T23:39:19.566Z,100.00
2022-09-30T23:41:48.847Z,100.00
2022-09-30T23:44:19.007Z,100.00
2022-09-30T23:47:06.917Z,100.00
2022-09-30T23:49:37.700Z,100.00
2022-09-30T23:52:13.159Z,100.00
2022-09-30T23:54:42.367Z,100.00
2022-09-30T23:57:10.835Z,100.00
2022-09-30T23:59:38.815Z,100.00
